Palma Ceia, Florida
Current Conditions -  °F | °C
As of 4:53 AM on Saturday 22 Nov 2014 (Local Time) from KTPA Reporting Station
Light Rain Light Rain  
Wind Chill: 63°   Ceiling: 6000
Heat Index: 63°   Visibility: 6mi
Dew Point: 59°   Wind: 8mph
Humidity: 87%   Direction: 50°NE
Pressure: 30.21"   Gusts: NA
Location:  27.9448°N, 82.5145°W
Report Text: KTPA 220953Z 05007KT 6SM -RA BR OVC060 17/15 A3021 RMK AO2 RAB20 SLP228 P0000 T01720150
Loading
Personal Weather Stations






























Interactive Weather Map New forecast layout! Learn more

10-Day Weather Forecast

Advertisements
Track Severe Weather on mobile